sensor_id;sensor_type;location;lat;lon;timestamp;P1;durP1;ratioP1;P2;durP2;ratioP2
7154;SDS011;3619;53.784;10.440;2023-07-29T00:02:18;2.20;;;2.10;;
7154;SDS011;3619;53.784;10.440;2023-07-29T00:04:44;2.40;;;2.30;;
7154;SDS011;3619;53.784;10.440;2023-07-29T00:07:11;2.27;;;2.17;;
7154;SDS011;3619;53.784;10.440;2023-07-29T00:09:38;2.43;;;2.33;;
7154;SDS011;3619;53.784;10.440;2023-07-29T00:12:05;2.13;;;2.03;;
7154;SDS011;3619;53.784;10.440;2023-07-29T00:14:34;2.67;;;2.57;;
7154;SDS011;3619;53.784;10.440;2023-07-29T00:17:04;1.70;;;1.63;;
7154;SDS011;3619;53.784;10.440;2023-07-29T00:19:31;1.87;;;1.83;;
7154;SDS011;3619;53.784;10.440;2023-07-29T00:21:58;2.20;;;2.10;;
7154;SDS011;3619;53.784;10.440;2023-07-29T00:24:25;2.07;;;1.97;;
7154;SDS011;3619;53.784;10.440;2023-07-29T00:26:52;1.70;;;1.70;;
7154;SDS011;3619;53.784;10.440;2023-07-29T00:29:19;1.90;;;1.80;;
7154;SDS011;3619;53.784;10.440;2023-07-29T00:31:47;2.00;;;1.90;;
7154;SDS011;3619;53.784;10.440;2023-07-29T00:34:13;2.37;;;2.27;;
7154;SDS011;3619;53.784;10.440;2023-07-29T00:36:44;2.60;;;2.40;;
7154;SDS011;3619;53.784;10.440;2023-07-29T00:39:11;1.53;;;1.53;;
7154;SDS011;3619;53.784;10.440;2023-07-29T00:41:38;1.87;;;1.80;;
7154;SDS011;3619;53.784;10.440;2023-07-29T00:44:07;1.23;;;1.23;;
7154;SDS011;3619;53.784;10.440;2023-07-29T00:46:34;1.40;;;1.30;;
7154;SDS011;3619;53.784;10.440;2023-07-29T00:49:05;1.47;;;1.47;;
7154;SDS011;3619;53.784;10.440;2023-07-29T00:51:32;1.00;;;1.00;;
7154;SDS011;3619;53.784;10.440;2023-07-29T00:53:59;1.30;;;1.30;;
7154;SDS011;3619;53.784;10.440;2023-07-29T00:56:26;1.40;;;1.40;;
7154;SDS011;3619;53.784;10.440;2023-07-29T00:58:52;1.20;;;1.20;;
7154;SDS011;3619;53.784;10.440;2023-07-29T01:01:24;1.00;;;1.00;;
7154;SDS011;3619;53.784;10.440;2023-07-29T01:03:52;0.90;;;0.90;;
7154;SDS011;3619;53.784;10.440;2023-07-29T01:06:27;1.00;;;1.00;;
7154;SDS011;3619;53.784;10.440;2023-07-29T01:09:01;1.00;;;1.00;;
7154;SDS011;3619;53.784;10.440;2023-07-29T01:11:33;1.23;;;1.23;;
7154;SDS011;3619;53.784;10.440;2023-07-29T01:14:09;1.10;;;1.10;;
7154;SDS011;3619;53.784;10.440;2023-07-29T01:16:45;1.37;;;1.30;;
7154;SDS011;3619;53.784;10.440;2023-07-29T01:19:23;2.10;;;2.00;;
7154;SDS011;3619;53.784;10.440;2023-07-29T01:22:03;1.93;;;1.83;;
7154;SDS011;3619;53.784;10.440;2023-07-29T01:24:35;1.53;;;1.43;;
7154;SDS011;3619;53.784;10.440;2023-07-29T01:27:02;0.70;;;0.70;;
7154;SDS011;3619;53.784;10.440;2023-07-29T01:29:30;1.33;;;1.23;;
7154;SDS011;3619;53.784;10.440;2023-07-29T01:31:58;1.20;;;1.20;;
7154;SDS011;3619;53.784;10.440;2023-07-29T01:34:32;1.00;;;1.00;;
7154;SDS011;3619;53.784;10.440;2023-07-29T01:37:03;0.80;;;0.80;;
7154;SDS011;3619;53.784;10.440;2023-07-29T01:39:36;0.97;;;0.97;;
7154;SDS011;3619;53.784;10.440;2023-07-29T01:42:04;0.90;;;0.90;;
7154;SDS011;3619;53.784;10.440;2023-07-29T01:44:31;1.00;;;1.00;;
7154;SDS011;3619;53.784;10.440;2023-07-29T01:46:59;1.10;;;1.10;;
7154;SDS011;3619;53.784;10.440;2023-07-29T01:49:26;10.73;;;1.63;;
7154;SDS011;3619;53.784;10.440;2023-07-29T01:51:52;0.80;;;0.80;;
7154;SDS011;3619;53.784;10.440;2023-07-29T01:54:19;0.60;;;0.60;;
7154;SDS011;3619;53.784;10.440;2023-07-29T01:56:48;1.10;;;1.03;;
7154;SDS011;3619;53.784;10.440;2023-07-29T01:59:16;0.70;;;0.70;;
7154;SDS011;3619;53.784;10.440;2023-07-29T02:01:43;0.70;;;0.70;;
7154;SDS011;3619;53.784;10.440;2023-07-29T02:04:11;0.90;;;0.90;;
7154;SDS011;3619;53.784;10.440;2023-07-29T02:06:39;0.70;;;0.70;;
7154;SDS011;3619;53.784;10.440;2023-07-29T02:09:06;1.00;;;1.00;;
7154;SDS011;3619;53.784;10.440;2023-07-29T02:11:34;0.87;;;0.87;;
7154;SDS011;3619;53.784;10.440;2023-07-29T02:14:02;0.80;;;0.80;;
7154;SDS011;3619;53.784;10.440;2023-07-29T02:16:29;1.13;;;1.13;;
7154;SDS011;3619;53.784;10.440;2023-07-29T02:18:57;0.80;;;0.80;;
7154;SDS011;3619;53.784;10.440;2023-07-29T02:21:24;0.90;;;0.90;;
7154;SDS011;3619;53.784;10.440;2023-07-29T02:23:52;1.10;;;1.00;;
7154;SDS011;3619;53.784;10.440;2023-07-29T02:26:19;1.40;;;1.37;;
7154;SDS011;3619;53.784;10.440;2023-07-29T02:28:45;0.80;;;0.80;;
7154;SDS011;3619;53.784;10.440;2023-07-29T02:31:16;0.87;;;0.87;;
7154;SDS011;3619;53.784;10.440;2023-07-29T02:33:43;0.90;;;0.90;;
7154;SDS011;3619;53.784;10.440;2023-07-29T02:36:11;1.37;;;1.20;;
7154;SDS011;3619;53.784;10.440;2023-07-29T02:38:39;1.10;;;1.10;;
7154;SDS011;3619;53.784;10.440;2023-07-29T02:41:06;1.13;;;1.13;;
7154;SDS011;3619;53.784;10.440;2023-07-29T02:43:34;1.13;;;1.13;;
7154;SDS011;3619;53.784;10.440;2023-07-29T02:46:01;1.20;;;1.20;;
7154;SDS011;3619;53.784;10.440;2023-07-29T02:48:29;0.90;;;0.90;;
7154;SDS011;3619;53.784;10.440;2023-07-29T02:50:56;1.40;;;1.30;;
7154;SDS011;3619;53.784;10.440;2023-07-29T02:53:23;0.90;;;0.90;;
7154;SDS011;3619;53.784;10.440;2023-07-29T02:55:50;1.00;;;1.00;;
7154;SDS011;3619;53.784;10.440;2023-07-29T02:58:17;1.33;;;1.33;;
7154;SDS011;3619;53.784;10.440;2023-07-29T03:00:45;1.50;;;1.40;;
7154;SDS011;3619;53.784;10.440;2023-07-29T03:03:13;0.80;;;0.80;;
7154;SDS011;3619;53.784;10.440;2023-07-29T03:05:41;1.90;;;1.50;;
7154;SDS011;3619;53.784;10.440;2023-07-29T03:08:08;1.10;;;1.10;;
7154;SDS011;3619;53.784;10.440;2023-07-29T03:10:35;1.37;;;1.37;;
7154;SDS011;3619;53.784;10.440;2023-07-29T03:13:02;2.97;;;1.40;;
7154;SDS011;3619;53.784;10.440;2023-07-29T03:15:29;0.97;;;0.97;;
7154;SDS011;3619;53.784;10.440;2023-07-29T03:17:56;1.93;;;1.83;;
7154;SDS011;3619;53.784;10.440;2023-07-29T03:20:22;0.60;;;0.60;;
7154;SDS011;3619;53.784;10.440;2023-07-29T03:22:53;0.93;;;0.93;;
7154;SDS011;3619;53.784;10.440;2023-07-29T03:25:22;0.60;;;0.60;;
7154;SDS011;3619;53.784;10.440;2023-07-29T03:27:49;0.90;;;0.90;;
7154;SDS011;3619;53.784;10.440;2023-07-29T03:30:18;0.77;;;0.77;;
7154;SDS011;3619;53.784;10.440;2023-07-29T03:32:46;1.10;;;1.10;;
7154;SDS011;3619;53.784;10.440;2023-07-29T03:35:12;0.83;;;0.83;;
7154;SDS011;3619;53.784;10.440;2023-07-29T03:37:40;1.67;;;1.57;;
7154;SDS011;3619;53.784;10.440;2023-07-29T03:40:08;0.80;;;0.80;;
7154;SDS011;3619;53.784;10.440;2023-07-29T03:42:35;0.60;;;0.60;;
7154;SDS011;3619;53.784;10.440;2023-07-29T03:45:03;0.83;;;0.83;;
7154;SDS011;3619;53.784;10.440;2023-07-29T03:47:31;1.00;;;1.00;;
7154;SDS011;3619;53.784;10.440;2023-07-29T03:49:58;0.87;;;0.73;;
7154;SDS011;3619;53.784;10.440;2023-07-29T03:52:26;2.13;;;1.57;;
7154;SDS011;3619;53.784;10.440;2023-07-29T03:54:53;0.80;;;0.80;;
7154;SDS011;3619;53.784;10.440;2023-07-29T03:57:22;0.80;;;0.80;;
7154;SDS011;3619;53.784;10.440;2023-07-29T03:59:49;1.00;;;1.00;;
7154;SDS011;3619;53.784;10.440;2023-07-29T04:02:15;1.00;;;0.90;;
7154;SDS011;3619;53.784;10.440;2023-07-29T04:04:42;1.23;;;1.23;;
7154;SDS011;3619;53.784;10.440;2023-07-29T04:07:12;0.87;;;0.87;;
7154;SDS011;3619;53.784;10.440;2023-07-29T04:09:39;1.10;;;1.10;;
7154;SDS011;3619;53.784;10.440;2023-07-29T04:12:11;0.83;;;0.83;;
7154;SDS011;3619;53.784;10.440;2023-07-29T04:14:39;0.97;;;0.97;;
7154;SDS011;3619;53.784;10.440;2023-07-29T04:17:06;1.67;;;1.57;;
7154;SDS011;3619;53.784;10.440;2023-07-29T04:19:33;0.83;;;0.83;;
7154;SDS011;3619;53.784;10.440;2023-07-29T04:22:00;1.03;;;1.03;;
7154;SDS011;3619;53.784;10.440;2023-07-29T04:24:27;1.60;;;1.57;;
7154;SDS011;3619;53.784;10.440;2023-07-29T04:26:54;1.63;;;1.53;;
7154;SDS011;3619;53.784;10.440;2023-07-29T04:29:21;0.97;;;0.97;;
7154;SDS011;3619;53.784;10.440;2023-07-29T04:31:49;1.30;;;1.20;;
7154;SDS011;3619;53.784;10.440;2023-07-29T04:34:17;1.70;;;1.60;;
7154;SDS011;3619;53.784;10.440;2023-07-29T04:36:46;1.13;;;1.13;;
7154;SDS011;3619;53.784;10.440;2023-07-29T04:39:14;0.80;;;0.80;;
7154;SDS011;3619;53.784;10.440;2023-07-29T04:41:40;1.60;;;1.50;;
7154;SDS011;3619;53.784;10.440;2023-07-29T04:44:07;0.90;;;0.90;;
7154;SDS011;3619;53.784;10.440;2023-07-29T04:46:35;1.40;;;1.30;;
7154;SDS011;3619;53.784;10.440;2023-07-29T04:49:04;1.60;;;1.50;;
7154;SDS011;3619;53.784;10.440;2023-07-29T04:51:30;1.30;;;1.30;;
7154;SDS011;3619;53.784;10.440;2023-07-29T04:53:57;1.10;;;1.10;;
7154;SDS011;3619;53.784;10.440;2023-07-29T04:56:24;1.37;;;1.33;;
7154;SDS011;3619;53.784;10.440;2023-07-29T04:58:51;1.47;;;1.47;;
7154;SDS011;3619;53.784;10.440;2023-07-29T05:01:20;2.00;;;1.90;;
7154;SDS011;3619;53.784;10.440;2023-07-29T05:03:47;1.77;;;1.67;;
7154;SDS011;3619;53.784;10.440;2023-07-29T05:06:15;1.80;;;1.70;;
7154;SDS011;3619;53.784;10.440;2023-07-29T05:08:41;1.43;;;1.33;;
7154;SDS011;3619;53.784;10.440;2023-07-29T05:11:08;1.37;;;1.37;;
7154;SDS011;3619;53.784;10.440;2023-07-29T05:13:35;1.40;;;1.40;;
7154;SDS011;3619;53.784;10.440;2023-07-29T05:16:03;1.93;;;1.83;;
7154;SDS011;3619;53.784;10.440;2023-07-29T05:18:30;2.30;;;2.17;;
7154;SDS011;3619;53.784;10.440;2023-07-29T05:20:56;2.63;;;2.30;;
7154;SDS011;3619;53.784;10.440;2023-07-29T05:23:24;1.30;;;1.30;;
7154;SDS011;3619;53.784;10.440;2023-07-29T05:25:51;3.90;;;1.70;;
7154;SDS011;3619;53.784;10.440;2023-07-29T05:28:18;3.40;;;1.30;;
7154;SDS011;3619;53.784;10.440;2023-07-29T05:30:45;3.37;;;3.10;;
7154;SDS011;3619;53.784;10.440;2023-07-29T05:33:13;1.97;;;1.87;;
7154;SDS011;3619;53.784;10.440;2023-07-29T05:35:41;4.33;;;2.20;;
7154;SDS011;3619;53.784;10.440;2023-07-29T05:38:08;2.33;;;2.23;;
7154;SDS011;3619;53.784;10.440;2023-07-29T05:40:36;3.00;;;2.80;;
7154;SDS011;3619;53.784;10.440;2023-07-29T05:43:03;2.63;;;2.47;;
7154;SDS011;3619;53.784;10.440;2023-07-29T05:45:30;2.27;;;2.17;;
7154;SDS011;3619;53.784;10.440;2023-07-29T05:47:57;2.43;;;2.33;;
7154;SDS011;3619;53.784;10.440;2023-07-29T05:50:26;2.87;;;2.67;;
7154;SDS011;3619;53.784;10.440;2023-07-29T05:52:52;3.23;;;3.03;;
7154;SDS011;3619;53.784;10.440;2023-07-29T05:55:19;3.57;;;2.17;;
7154;SDS011;3619;53.784;10.440;2023-07-29T05:57:47;8.20;;;3.03;;
7154;SDS011;3619;53.784;10.440;2023-07-29T06:00:15;2.73;;;2.53;;
7154;SDS011;3619;53.784;10.440;2023-07-29T06:02:42;4.87;;;2.77;;
7154;SDS011;3619;53.784;10.440;2023-07-29T06:05:11;6.80;;;3.57;;
7154;SDS011;3619;53.784;10.440;2023-07-29T06:07:38;4.23;;;2.47;;
7154;SDS011;3619;53.784;10.440;2023-07-29T06:10:11;2.80;;;2.33;;
7154;SDS011;3619;53.784;10.440;2023-07-29T06:12:44;4.20;;;3.17;;
7154;SDS011;3619;53.784;10.440;2023-07-29T06:15:15;2.13;;;2.03;;
7154;SDS011;3619;53.784;10.440;2023-07-29T06:17:42;3.20;;;2.97;;
7154;SDS011;3619;53.784;10.440;2023-07-29T06:20:09;5.27;;;3.20;;
7154;SDS011;3619;53.784;10.440;2023-07-29T06:22:36;2.90;;;2.80;;
7154;SDS011;3619;53.784;10.440;2023-07-29T06:25:03;3.37;;;3.17;;
7154;SDS011;3619;53.784;10.440;2023-07-29T06:27:30;4.30;;;2.83;;
7154;SDS011;3619;53.784;10.440;2023-07-29T06:29:57;4.33;;;3.93;;
7154;SDS011;3619;53.784;10.440;2023-07-29T06:32:25;4.27;;;3.93;;
7154;SDS011;3619;53.784;10.440;2023-07-29T06:34:52;3.60;;;3.40;;
7154;SDS011;3619;53.784;10.440;2023-07-29T06:37:19;3.77;;;3.47;;
7154;SDS011;3619;53.784;10.440;2023-07-29T06:39:46;3.10;;;2.90;;
7154;SDS011;3619;53.784;10.440;2023-07-29T06:42:14;4.30;;;3.47;;
7154;SDS011;3619;53.784;10.440;2023-07-29T06:44:40;4.20;;;4.00;;
7154;SDS011;3619;53.784;10.440;2023-07-29T06:47:07;3.07;;;2.97;;
7154;SDS011;3619;53.784;10.440;2023-07-29T06:49:35;4.87;;;4.47;;
7154;SDS011;3619;53.784;10.440;2023-07-29T06:52:02;4.37;;;4.07;;
7154;SDS011;3619;53.784;10.440;2023-07-29T06:54:29;4.53;;;4.23;;
7154;SDS011;3619;53.784;10.440;2023-07-29T06:56:56;4.07;;;3.77;;
7154;SDS011;3619;53.784;10.440;2023-07-29T06:59:23;5.57;;;5.27;;
7154;SDS011;3619;53.784;10.440;2023-07-29T07:01:51;6.43;;;6.07;;
7154;SDS011;3619;53.784;10.440;2023-07-29T07:04:17;3.80;;;3.60;;
7154;SDS011;3619;53.784;10.440;2023-07-29T07:06:45;5.03;;;4.73;;
7154;SDS011;3619;53.784;10.440;2023-07-29T07:09:12;6.57;;;6.10;;
7154;SDS011;3619;53.784;10.440;2023-07-29T07:11:39;8.70;;;8.20;;
7154;SDS011;3619;53.784;10.440;2023-07-29T07:14:06;8.27;;;7.77;;
7154;SDS011;3619;53.784;10.440;2023-07-29T07:16:32;7.17;;;6.87;;
7154;SDS011;3619;53.784;10.440;2023-07-29T07:19:01;6.83;;;6.53;;
7154;SDS011;3619;53.784;10.440;2023-07-29T07:21:28;8.07;;;7.53;;
7154;SDS011;3619;53.784;10.440;2023-07-29T07:23:59;6.17;;;5.77;;
7154;SDS011;3619;53.784;10.440;2023-07-29T07:26:27;6.73;;;6.33;;
7154;SDS011;3619;53.784;10.440;2023-07-29T07:29:05;10.30;;;9.80;;
7154;SDS011;3619;53.784;10.440;2023-07-29T07:31:32;11.80;;;11.00;;
7154;SDS011;3619;53.784;10.440;2023-07-29T07:34:00;12.53;;;11.63;;
7154;SDS011;3619;53.784;10.440;2023-07-29T07:36:28;15.37;;;14.70;;
7154;SDS011;3619;53.784;10.440;2023-07-29T07:38:56;20.00;;;19.03;;
7154;SDS011;3619;53.784;10.440;2023-07-29T07:41:29;15.53;;;14.80;;
7154;SDS011;3619;53.784;10.440;2023-07-29T07:43:55;24.27;;;23.03;;
7154;SDS011;3619;53.784;10.440;2023-07-29T07:46:24;24.33;;;22.93;;
7154;SDS011;3619;53.784;10.440;2023-07-29T07:48:51;27.57;;;26.27;;
7154;SDS011;3619;53.784;10.440;2023-07-29T07:51:18;22.30;;;21.40;;
7154;SDS011;3619;53.784;10.440;2023-07-29T07:53:46;24.40;;;23.30;;
7154;SDS011;3619;53.784;10.440;2023-07-29T07:56:14;20.67;;;19.87;;
7154;SDS011;3619;53.784;10.440;2023-07-29T07:58:41;20.97;;;19.83;;
7154;SDS011;3619;53.784;10.440;2023-07-29T08:01:08;19.97;;;19.07;;
7154;SDS011;3619;53.784;10.440;2023-07-29T08:03:36;16.87;;;16.03;;
7154;SDS011;3619;53.784;10.440;2023-07-29T08:06:05;15.43;;;14.63;;
7154;SDS011;3619;53.784;10.440;2023-07-29T08:08:33;14.00;;;12.83;;
7154;SDS011;3619;53.784;10.440;2023-07-29T08:11:00;12.13;;;11.63;;
7154;SDS011;3619;53.784;10.440;2023-07-29T08:13:28;12.17;;;11.57;;
7154;SDS011;3619;53.784;10.440;2023-07-29T08:15:55;9.93;;;9.33;;
7154;SDS011;3619;53.784;10.440;2023-07-29T08:18:22;14.73;;;13.60;;
7154;SDS011;3619;53.784;10.440;2023-07-29T08:20:52;14.97;;;13.73;;
7154;SDS011;3619;53.784;10.440;2023-07-29T08:23:20;17.47;;;16.67;;
7154;SDS011;3619;53.784;10.440;2023-07-29T08:25:51;18.10;;;17.00;;
7154;SDS011;3619;53.784;10.440;2023-07-29T08:28:19;17.97;;;17.10;;
7154;SDS011;3619;53.784;10.440;2023-07-29T08:30:50;19.50;;;18.47;;
7154;SDS011;3619;53.784;10.440;2023-07-29T08:33:16;15.77;;;14.90;;
7154;SDS011;3619;53.784;10.440;2023-07-29T08:35:43;15.83;;;15.13;;
7154;SDS011;3619;53.784;10.440;2023-07-29T08:38:10;14.00;;;13.40;;
7154;SDS011;3619;53.784;10.440;2023-07-29T08:40:37;14.00;;;13.30;;
7154;SDS011;3619;53.784;10.440;2023-07-29T08:43:11;13.60;;;13.00;;
7154;SDS011;3619;53.784;10.440;2023-07-29T08:45:40;12.80;;;12.03;;
7154;SDS011;3619;53.784;10.440;2023-07-29T08:48:09;12.60;;;11.93;;
7154;SDS011;3619;53.784;10.440;2023-07-29T08:50:37;11.23;;;10.63;;
7154;SDS011;3619;53.784;10.440;2023-07-29T08:53:04;9.50;;;8.90;;
7154;SDS011;3619;53.784;10.440;2023-07-29T08:55:32;7.90;;;7.50;;
7154;SDS011;3619;53.784;10.440;2023-07-29T08:58:01;8.60;;;8.00;;
7154;SDS011;3619;53.784;10.440;2023-07-29T09:00:30;8.00;;;7.70;;
7154;SDS011;3619;53.784;10.440;2023-07-29T09:02:58;7.57;;;7.13;;
7154;SDS011;3619;53.784;10.440;2023-07-29T09:05:32;6.97;;;6.60;;
7154;SDS011;3619;53.784;10.440;2023-07-29T09:08:00;5.90;;;5.33;;
7154;SDS011;3619;53.784;10.440;2023-07-29T09:10:35;5.93;;;5.63;;
7154;SDS011;3619;53.784;10.440;2023-07-29T09:13:02;7.83;;;7.23;;
7154;SDS011;3619;53.784;10.440;2023-07-29T09:15:30;6.43;;;5.87;;
7154;SDS011;3619;53.784;10.440;2023-07-29T09:17:57;5.83;;;5.43;;
7154;SDS011;3619;53.784;10.440;2023-07-29T09:20:25;6.33;;;5.93;;
7154;SDS011;3619;53.784;10.440;2023-07-29T09:22:55;6.17;;;5.87;;
7154;SDS011;3619;53.784;10.440;2023-07-29T09:25:24;6.87;;;6.37;;
7154;SDS011;3619;53.784;10.440;2023-07-29T09:27:51;8.43;;;7.97;;
7154;SDS011;3619;53.784;10.440;2023-07-29T09:30:18;7.03;;;6.63;;
7154;SDS011;3619;53.784;10.440;2023-07-29T09:32:52;6.30;;;5.90;;
7154;SDS011;3619;53.784;10.440;2023-07-29T09:35:21;6.00;;;5.73;;
7154;SDS011;3619;53.784;10.440;2023-07-29T09:37:48;5.40;;;5.10;;
7154;SDS011;3619;53.784;10.440;2023-07-29T09:40:20;4.20;;;3.97;;
7154;SDS011;3619;53.784;10.440;2023-07-29T09:42:50;3.70;;;3.50;;
7154;SDS011;3619;53.784;10.440;2023-07-29T09:45:27;5.33;;;5.03;;
7154;SDS011;3619;53.784;10.440;2023-07-29T09:47:59;4.10;;;3.90;;
7154;SDS011;3619;53.784;10.440;2023-07-29T09:50:27;4.27;;;4.03;;
7154;SDS011;3619;53.784;10.440;2023-07-29T09:52:54;5.30;;;4.93;;
7154;SDS011;3619;53.784;10.440;2023-07-29T09:55:25;3.87;;;3.70;;
7154;SDS011;3619;53.784;10.440;2023-07-29T09:57:53;6.10;;;5.80;;
7154;SDS011;3619;53.784;10.440;2023-07-29T10:00:22;6.93;;;6.63;;
7154;SDS011;3619;53.784;10.440;2023-07-29T10:02:49;6.67;;;6.27;;
7154;SDS011;3619;53.784;10.440;2023-07-29T10:05:25;6.17;;;5.87;;
7154;SDS011;3619;53.784;10.440;2023-07-29T10:07:52;7.57;;;7.17;;
7154;SDS011;3619;53.784;10.440;2023-07-29T10:10:24;5.83;;;5.57;;
7154;SDS011;3619;53.784;10.440;2023-07-29T10:12:54;8.00;;;7.50;;
7154;SDS011;3619;53.784;10.440;2023-07-29T10:15:23;13.63;;;12.93;;
7154;SDS011;3619;53.784;10.440;2023-07-29T10:17:52;15.17;;;14.57;;
7154;SDS011;3619;53.784;10.440;2023-07-29T10:20:19;15.70;;;14.93;;
7154;SDS011;3619;53.784;10.440;2023-07-29T10:22:46;22.30;;;21.40;;
7154;SDS011;3619;53.784;10.440;2023-07-29T10:25:15;29.07;;;27.90;;
7154;SDS011;3619;53.784;10.440;2023-07-29T10:27:47;26.10;;;25.00;;
7154;SDS011;3619;53.784;10.440;2023-07-29T10:30:15;23.90;;;22.93;;
7154;SDS011;3619;53.784;10.440;2023-07-29T10:32:42;39.13;;;37.53;;
7154;SDS011;3619;53.784;10.440;2023-07-29T10:35:11;34.57;;;33.27;;
7154;SDS011;3619;53.784;10.440;2023-07-29T10:37:39;34.87;;;33.47;;
7154;SDS011;3619;53.784;10.440;2023-07-29T10:40:09;39.33;;;37.83;;
7154;SDS011;3619;53.784;10.440;2023-07-29T10:42:36;42.83;;;40.87;;
7154;SDS011;3619;53.784;10.440;2023-07-29T10:45:19;37.70;;;36.10;;
7154;SDS011;3619;53.784;10.440;2023-07-29T10:47:47;24.03;;;22.93;;
7154;SDS011;3619;53.784;10.440;2023-07-29T10:50:17;40.43;;;38.73;;
7154;SDS011;3619;53.784;10.440;2023-07-29T10:52:50;53.77;;;51.63;;
7154;SDS011;3619;53.784;10.440;2023-07-29T10:55:25;84.67;;;81.53;;
7154;SDS011;3619;53.784;10.440;2023-07-29T10:58:04;68.13;;;65.57;;
7154;SDS011;3619;53.784;10.440;2023-07-29T11:00:35;63.37;;;60.93;;
7154;SDS011;3619;53.784;10.440;2023-07-29T11:03:03;67.97;;;65.43;;
7154;SDS011;3619;53.784;10.440;2023-07-29T11:05:42;73.30;;;70.60;;
7154;SDS011;3619;53.784;10.440;2023-07-29T11:08:20;54.53;;;52.43;;
7154;SDS011;3619;53.784;10.440;2023-07-29T11:11:02;92.20;;;88.83;;
7154;SDS011;3619;53.784;10.440;2023-07-29T11:13:36;67.53;;;65.07;;
7154;SDS011;3619;53.784;10.440;2023-07-29T11:16:06;63.70;;;61.27;;
7154;SDS011;3619;53.784;10.440;2023-07-29T11:18:34;50.43;;;48.47;;
7154;SDS011;3619;53.784;10.440;2023-07-29T11:21:02;55.67;;;53.57;;
7154;SDS011;3619;53.784;10.440;2023-07-29T11:23:32;50.77;;;48.87;;
7154;SDS011;3619;53.784;10.440;2023-07-29T11:26:02;57.23;;;55.07;;
7154;SDS011;3619;53.784;10.440;2023-07-29T11:28:30;44.17;;;42.47;;
7154;SDS011;3619;53.784;10.440;2023-07-29T11:30:59;59.97;;;57.70;;
7154;SDS011;3619;53.784;10.440;2023-07-29T11:33:27;44.90;;;43.17;;
7154;SDS011;3619;53.784;10.440;2023-07-29T11:35:54;42.67;;;41.00;;
7154;SDS011;3619;53.784;10.440;2023-07-29T11:38:23;29.53;;;28.40;;
7154;SDS011;3619;53.784;10.440;2023-07-29T11:40:53;34.57;;;33.23;;
7154;SDS011;3619;53.784;10.440;2023-07-29T11:43:24;23.30;;;22.40;;
7154;SDS011;3619;53.784;10.440;2023-07-29T11:45:52;19.33;;;18.33;;
7154;SDS011;3619;53.784;10.440;2023-07-29T11:48:22;25.07;;;23.87;;
7154;SDS011;3619;53.784;10.440;2023-07-29T11:50:54;17.97;;;17.17;;
7154;SDS011;3619;53.784;10.440;2023-07-29T11:53:21;17.13;;;16.47;;
7154;SDS011;3619;53.784;10.440;2023-07-29T11:55:49;14.57;;;13.97;;
7154;SDS011;3619;53.784;10.440;2023-07-29T11:58:17;10.23;;;9.83;;
7154;SDS011;3619;53.784;10.440;2023-07-29T12:00:44;7.67;;;7.37;;
7154;SDS011;3619;53.784;10.440;2023-07-29T12:03:11;8.27;;;7.90;;
7154;SDS011;3619;53.784;10.440;2023-07-29T12:05:39;8.83;;;8.53;;
7154;SDS011;3619;53.784;10.440;2023-07-29T12:08:06;8.50;;;8.20;;
7154;SDS011;3619;53.784;10.440;2023-07-29T12:10:35;5.47;;;5.27;;
7154;SDS011;3619;53.784;10.440;2023-07-29T12:13:02;4.27;;;4.13;;
7154;SDS011;3619;53.784;10.440;2023-07-29T12:15:43;3.97;;;3.87;;
7154;SDS011;3619;53.784;10.440;2023-07-29T12:18:09;2.93;;;2.83;;
7154;SDS011;3619;53.784;10.440;2023-07-29T12:20:43;2.30;;;2.20;;
7154;SDS011;3619;53.784;10.440;2023-07-29T12:23:10;2.83;;;2.73;;
7154;SDS011;3619;53.784;10.440;2023-07-29T12:25:40;2.97;;;2.77;;
7154;SDS011;3619;53.784;10.440;2023-07-29T12:28:06;3.13;;;3.00;;
7154;SDS011;3619;53.784;10.440;2023-07-29T12:30:33;1.73;;;1.63;;
7154;SDS011;3619;53.784;10.440;2023-07-29T12:33:03;2.23;;;2.13;;
7154;SDS011;3619;53.784;10.440;2023-07-29T12:35:41;2.10;;;2.00;;
7154;SDS011;3619;53.784;10.440;2023-07-29T12:38:11;2.93;;;2.83;;
7154;SDS011;3619;53.784;10.440;2023-07-29T12:40:47;2.10;;;2.00;;
7154;SDS011;3619;53.784;10.440;2023-07-29T12:43:14;1.77;;;1.70;;
7154;SDS011;3619;53.784;10.440;2023-07-29T12:45:41;1.70;;;1.60;;
7154;SDS011;3619;53.784;10.440;2023-07-29T12:48:09;1.23;;;1.23;;
7154;SDS011;3619;53.784;10.440;2023-07-29T12:50:36;1.53;;;1.43;;
7154;SDS011;3619;53.784;10.440;2023-07-29T12:53:06;1.20;;;1.20;;
7154;SDS011;3619;53.784;10.440;2023-07-29T12:55:35;1.37;;;1.37;;
7154;SDS011;3619;53.784;10.440;2023-07-29T12:58:03;1.50;;;1.40;;
7154;SDS011;3619;53.784;10.440;2023-07-29T13:00:30;1.17;;;1.13;;
7154;SDS011;3619;53.784;10.440;2023-07-29T13:02:56;1.07;;;1.07;;
7154;SDS011;3619;53.784;10.440;2023-07-29T13:05:23;1.40;;;1.30;;
7154;SDS011;3619;53.784;10.440;2023-07-29T13:07:50;1.17;;;1.07;;
7154;SDS011;3619;53.784;10.440;2023-07-29T13:10:18;1.10;;;1.10;;
7154;SDS011;3619;53.784;10.440;2023-07-29T13:12:45;1.10;;;1.00;;
7154;SDS011;3619;53.784;10.440;2023-07-29T13:15:13;1.07;;;1.07;;
7154;SDS011;3619;53.784;10.440;2023-07-29T13:17:40;1.20;;;1.13;;
7154;SDS011;3619;53.784;10.440;2023-07-29T13:20:07;1.40;;;1.00;;
7154;SDS011;3619;53.784;10.440;2023-07-29T13:22:35;1.30;;;1.30;;
7154;SDS011;3619;53.784;10.440;2023-07-29T13:25:02;0.93;;;0.93;;
7154;SDS011;3619;53.784;10.440;2023-07-29T13:27:31;0.80;;;0.80;;
7154;SDS011;3619;53.784;10.440;2023-07-29T13:29:57;1.03;;;1.03;;
7154;SDS011;3619;53.784;10.440;2023-07-29T13:32:24;1.00;;;1.00;;
7154;SDS011;3619;53.784;10.440;2023-07-29T13:34:53;1.00;;;1.00;;
7154;SDS011;3619;53.784;10.440;2023-07-29T13:37:20;0.90;;;0.90;;
7154;SDS011;3619;53.784;10.440;2023-07-29T13:39:47;1.37;;;1.07;;
7154;SDS011;3619;53.784;10.440;2023-07-29T13:42:13;0.87;;;0.87;;
7154;SDS011;3619;53.784;10.440;2023-07-29T13:44:41;0.97;;;0.97;;
7154;SDS011;3619;53.784;10.440;2023-07-29T13:47:08;0.80;;;0.80;;
7154;SDS011;3619;53.784;10.440;2023-07-29T13:49:35;0.80;;;0.80;;
7154;SDS011;3619;53.784;10.440;2023-07-29T13:52:02;0.90;;;0.90;;
7154;SDS011;3619;53.784;10.440;2023-07-29T13:54:29;1.03;;;1.03;;
7154;SDS011;3619;53.784;10.440;2023-07-29T13:56:56;1.40;;;1.30;;
7154;SDS011;3619;53.784;10.440;2023-07-29T13:59:24;0.73;;;0.73;;
7154;SDS011;3619;53.784;10.440;2023-07-29T14:01:52;1.20;;;1.20;;
7154;SDS011;3619;53.784;10.440;2023-07-29T14:04:19;1.50;;;1.40;;
7154;SDS011;3619;53.784;10.440;2023-07-29T14:06:46;1.13;;;1.13;;
7154;SDS011;3619;53.784;10.440;2023-07-29T14:09:13;1.13;;;1.10;;
7154;SDS011;3619;53.784;10.440;2023-07-29T14:11:39;1.43;;;1.33;;
7154;SDS011;3619;53.784;10.440;2023-07-29T14:14:06;1.80;;;1.27;;
7154;SDS011;3619;53.784;10.440;2023-07-29T14:16:33;1.10;;;1.00;;
7154;SDS011;3619;53.784;10.440;2023-07-29T14:19:01;1.03;;;1.03;;
7154;SDS011;3619;53.784;10.440;2023-07-29T14:21:28;1.03;;;1.03;;
7154;SDS011;3619;53.784;10.440;2023-07-29T14:23:55;0.90;;;0.90;;
7154;SDS011;3619;53.784;10.440;2023-07-29T14:26:22;0.90;;;0.90;;
7154;SDS011;3619;53.784;10.440;2023-07-29T14:28:48;1.10;;;1.10;;
7154;SDS011;3619;53.784;10.440;2023-07-29T14:31:17;1.30;;;1.30;;
7154;SDS011;3619;53.784;10.440;2023-07-29T14:33:44;1.57;;;1.47;;
7154;SDS011;3619;53.784;10.440;2023-07-29T14:36:13;0.93;;;0.93;;
7154;SDS011;3619;53.784;10.440;2023-07-29T14:38:40;1.07;;;1.07;;
7154;SDS011;3619;53.784;10.440;2023-07-29T14:41:07;1.30;;;1.20;;
7154;SDS011;3619;53.784;10.440;2023-07-29T14:43:34;1.07;;;1.07;;
7154;SDS011;3619;53.784;10.440;2023-07-29T14:46:01;1.40;;;1.30;;
7154;SDS011;3619;53.784;10.440;2023-07-29T14:48:28;1.03;;;1.03;;
7154;SDS011;3619;53.784;10.440;2023-07-29T14:50:55;1.10;;;1.10;;
7154;SDS011;3619;53.784;10.440;2023-07-29T14:53:23;1.40;;;1.30;;
7154;SDS011;3619;53.784;10.440;2023-07-29T14:55:50;1.30;;;1.30;;
7154;SDS011;3619;53.784;10.440;2023-07-29T14:58:17;1.27;;;1.17;;
7154;SDS011;3619;53.784;10.440;2023-07-29T15:00:43;1.17;;;1.17;;
7154;SDS011;3619;53.784;10.440;2023-07-29T15:03:10;0.90;;;0.90;;